sensor_id;sensor_type;location;lat;lon;timestamp;temperature;humidity
36132;DHT22;22185;48.738;9.324;2023-04-10T00:00:55;5.60;99.90
36132;DHT22;22185;48.738;9.324;2023-04-10T00:02:58;5.60;99.90
36132;DHT22;22185;48.738;9.324;2023-04-10T00:05:02;5.70;99.90
36132;DHT22;22185;48.738;9.324;2023-04-10T00:07:04;5.70;99.90
36132;DHT22;22185;48.738;9.324;2023-04-10T00:09:06;5.70;99.90
36132;DHT22;22185;48.738;9.324;2023-04-10T00:11:08;5.50;99.90
36132;DHT22;22185;48.738;9.324;2023-04-10T00:13:10;5.50;99.90
36132;DHT22;22185;48.738;9.324;2023-04-10T00:15:11;5.50;99.90
36132;DHT22;22185;48.738;9.324;2023-04-10T00:17:13;5.60;99.90
36132;DHT22;22185;48.738;9.324;2023-04-10T00:19:15;5.60;99.90
36132;DHT22;22185;48.738;9.324;2023-04-10T00:21:17;5.70;99.90
36132;DHT22;22185;48.738;9.324;2023-04-10T00:23:18;5.70;99.90
36132;DHT22;22185;48.738;9.324;2023-04-10T00:25:20;5.70;99.90
36132;DHT22;22185;48.738;9.324;2023-04-10T00:27:23;5.60;99.90
36132;DHT22;22185;48.738;9.324;2023-04-10T00:29:25;5.50;99.90
36132;DHT22;22185;48.738;9.324;2023-04-10T00:31:26;5.40;99.90
36132;DHT22;22185;48.738;9.324;2023-04-10T00:33:28;5.30;99.90
36132;DHT22;22185;48.738;9.324;2023-04-10T00:35:30;5.30;99.90
36132;DHT22;22185;48.738;9.324;2023-04-10T00:37:32;5.30;99.90
36132;DHT22;22185;48.738;9.324;2023-04-10T00:39:33;5.40;99.90
36132;DHT22;22185;48.738;9.324;2023-04-10T00:41:35;5.50;99.90
36132;DHT22;22185;48.738;9.324;2023-04-10T00:43:37;5.50;99.90
36132;DHT22;22185;48.738;9.324;2023-04-10T00:45:38;5.40;99.90
36132;DHT22;22185;48.738;9.324;2023-04-10T00:47:40;5.20;99.90
36132;DHT22;22185;48.738;9.324;2023-04-10T00:49:42;5.10;99.90
36132;DHT22;22185;48.738;9.324;2023-04-10T00:51:44;5.20;99.90
36132;DHT22;22185;48.738;9.324;2023-04-10T00:53:49;5.10;99.90
36132;DHT22;22185;48.738;9.324;2023-04-10T00:55:57;5.00;99.90
36132;DHT22;22185;48.738;9.324;2023-04-10T00:58:00;4.90;99.90
36132;DHT22;22185;48.738;9.324;2023-04-10T01:00:02;5.10;99.90
36132;DHT22;22185;48.738;9.324;2023-04-10T01:02:05;5.00;99.90
36132;DHT22;22185;48.738;9.324;2023-04-10T01:04:07;4.90;99.90
36132;DHT22;22185;48.738;9.324;2023-04-10T01:06:11;4.90;99.90
36132;DHT22;22185;48.738;9.324;2023-04-10T01:08:22;4.90;99.90
36132;DHT22;22185;48.738;9.324;2023-04-10T01:14:57;5.00;99.90
36132;DHT22;22185;48.738;9.324;2023-04-10T01:17:06;4.90;99.90
36132;DHT22;22185;48.738;9.324;2023-04-10T01:19:14;4.90;99.90
36132;DHT22;22185;48.738;9.324;2023-04-10T01:21:19;4.80;99.90
36132;DHT22;22185;48.738;9.324;2023-04-10T01:23:40;4.80;99.90
36132;DHT22;22185;48.738;9.324;2023-04-10T01:30:08;4.80;99.90
36132;DHT22;22185;48.738;9.324;2023-04-10T01:32:13;4.80;99.90
36132;DHT22;22185;48.738;9.324;2023-04-10T01:34:17;4.70;99.90
36132;DHT22;22185;48.738;9.324;2023-04-10T01:36:21;4.80;99.90
36132;DHT22;22185;48.738;9.324;2023-04-10T01:38:24;4.80;99.90
36132;DHT22;22185;48.738;9.324;2023-04-10T01:40:29;4.80;99.90
36132;DHT22;22185;48.738;9.324;2023-04-10T01:42:33;4.70;99.90
36132;DHT22;22185;48.738;9.324;2023-04-10T01:44:35;4.60;99.90
36132;DHT22;22185;48.738;9.324;2023-04-10T01:46:37;4.70;99.90
36132;DHT22;22185;48.738;9.324;2023-04-10T01:48:40;4.70;99.90
36132;DHT22;22185;48.738;9.324;2023-04-10T01:50:42;4.70;99.90
36132;DHT22;22185;48.738;9.324;2023-04-10T01:52:44;4.70;99.90
36132;DHT22;22185;48.738;9.324;2023-04-10T01:54:46;4.80;99.90
36132;DHT22;22185;48.738;9.324;2023-04-10T01:56:49;4.70;99.90
36132;DHT22;22185;48.738;9.324;2023-04-10T01:58:51;4.60;99.90
36132;DHT22;22185;48.738;9.324;2023-04-10T02:00:52;4.40;99.90
36132;DHT22;22185;48.738;9.324;2023-04-10T02:02:54;4.30;99.90
36132;DHT22;22185;48.738;9.324;2023-04-10T02:04:56;4.30;99.90
36132;DHT22;22185;48.738;9.324;2023-04-10T02:07:01;4.50;99.90
36132;DHT22;22185;48.738;9.324;2023-04-10T02:09:07;4.50;99.90
36132;DHT22;22185;48.738;9.324;2023-04-10T02:11:16;4.30;99.90
36132;DHT22;22185;48.738;9.324;2023-04-10T02:13:24;4.30;99.90
36132;DHT22;22185;48.738;9.324;2023-04-10T02:15:27;4.20;99.90
36132;DHT22;22185;48.738;9.324;2023-04-10T02:17:32;4.20;99.90
36132;DHT22;22185;48.738;9.324;2023-04-10T02:19:35;4.40;99.90
36132;DHT22;22185;48.738;9.324;2023-04-10T02:21:38;4.40;99.90
36132;DHT22;22185;48.738;9.324;2023-04-10T02:23:40;4.50;99.90
36132;DHT22;22185;48.738;9.324;2023-04-10T02:25:42;4.30;99.90
36132;DHT22;22185;48.738;9.324;2023-04-10T02:27:43;4.20;99.90
36132;DHT22;22185;48.738;9.324;2023-04-10T02:29:45;4.10;99.90
36132;DHT22;22185;48.738;9.324;2023-04-10T02:31:46;4.00;99.90
36132;DHT22;22185;48.738;9.324;2023-04-10T02:33:49;4.00;99.90
36132;DHT22;22185;48.738;9.324;2023-04-10T02:35:50;4.00;99.90
36132;DHT22;22185;48.738;9.324;2023-04-10T02:37:52;4.10;99.90
36132;DHT22;22185;48.738;9.324;2023-04-10T02:39:54;4.10;99.90
36132;DHT22;22185;48.738;9.324;2023-04-10T02:41:55;4.00;99.90
36132;DHT22;22185;48.738;9.324;2023-04-10T02:43:57;3.90;99.90
36132;DHT22;22185;48.738;9.324;2023-04-10T02:45:59;3.90;99.90
36132;DHT22;22185;48.738;9.324;2023-04-10T02:48:01;4.00;99.90
36132;DHT22;22185;48.738;9.324;2023-04-10T02:50:03;4.10;99.90
36132;DHT22;22185;48.738;9.324;2023-04-10T02:52:04;4.10;99.90
36132;DHT22;22185;48.738;9.324;2023-04-10T02:54:06;3.90;99.90
36132;DHT22;22185;48.738;9.324;2023-04-10T02:56:08;3.90;99.90
36132;DHT22;22185;48.738;9.324;2023-04-10T02:58:12;3.80;99.90
36132;DHT22;22185;48.738;9.324;2023-04-10T03:00:15;3.90;99.90
36132;DHT22;22185;48.738;9.324;2023-04-10T03:02:19;4.00;99.90
36132;DHT22;22185;48.738;9.324;2023-04-10T03:04:22;4.00;99.90
36132;DHT22;22185;48.738;9.324;2023-04-10T03:06:24;4.00;99.90
36132;DHT22;22185;48.738;9.324;2023-04-10T03:08:28;4.00;99.90
36132;DHT22;22185;48.738;9.324;2023-04-10T03:10:30;4.00;99.90
36132;DHT22;22185;48.738;9.324;2023-04-10T03:12:32;4.00;99.90
36132;DHT22;22185;48.738;9.324;2023-04-10T03:14:34;4.00;99.90
36132;DHT22;22185;48.738;9.324;2023-04-10T03:16:35;4.10;99.90
36132;DHT22;22185;48.738;9.324;2023-04-10T03:18:37;4.10;99.90
36132;DHT22;22185;48.738;9.324;2023-04-10T03:20:39;3.90;99.90
36132;DHT22;22185;48.738;9.324;2023-04-10T03:22:42;3.80;99.90
36132;DHT22;22185;48.738;9.324;2023-04-10T03:24:44;3.80;99.90
36132;DHT22;22185;48.738;9.324;2023-04-10T03:26:45;3.80;99.90
36132;DHT22;22185;48.738;9.324;2023-04-10T03:28:47;3.80;99.90
36132;DHT22;22185;48.738;9.324;2023-04-10T03:30:49;3.80;99.90
36132;DHT22;22185;48.738;9.324;2023-04-10T03:32:51;3.90;99.90
36132;DHT22;22185;48.738;9.324;2023-04-10T03:34:52;3.90;99.90
36132;DHT22;22185;48.738;9.324;2023-04-10T03:36:54;3.90;99.90
36132;DHT22;22185;48.738;9.324;2023-04-10T03:38:56;3.90;99.90
36132;DHT22;22185;48.738;9.324;2023-04-10T03:40:57;3.90;99.90
36132;DHT22;22185;48.738;9.324;2023-04-10T03:42:59;3.80;99.90
36132;DHT22;22185;48.738;9.324;2023-04-10T03:45:01;3.60;99.90
36132;DHT22;22185;48.738;9.324;2023-04-10T03:47:05;3.50;99.90
36132;DHT22;22185;48.738;9.324;2023-04-10T03:49:07;3.40;99.90
36132;DHT22;22185;48.738;9.324;2023-04-10T03:51:08;3.50;99.90
36132;DHT22;22185;48.738;9.324;2023-04-10T03:53:10;3.60;99.90
36132;DHT22;22185;48.738;9.324;2023-04-10T03:55:12;3.60;99.90
36132;DHT22;22185;48.738;9.324;2023-04-10T03:57:14;3.60;99.90
36132;DHT22;22185;48.738;9.324;2023-04-10T03:59:19;3.60;99.90
36132;DHT22;22185;48.738;9.324;2023-04-10T04:01:24;3.60;99.90
36132;DHT22;22185;48.738;9.324;2023-04-10T04:03:26;3.60;99.90
36132;DHT22;22185;48.738;9.324;2023-04-10T04:05:28;3.50;99.90
36132;DHT22;22185;48.738;9.324;2023-04-10T04:07:31;3.60;99.90
36132;DHT22;22185;48.738;9.324;2023-04-10T04:09:32;3.60;99.90
36132;DHT22;22185;48.738;9.324;2023-04-10T04:11:34;3.60;99.90
36132;DHT22;22185;48.738;9.324;2023-04-10T04:13:36;3.70;99.90
36132;DHT22;22185;48.738;9.324;2023-04-10T04:15:38;3.70;99.90
36132;DHT22;22185;48.738;9.324;2023-04-10T04:17:39;3.70;99.90
36132;DHT22;22185;48.738;9.324;2023-04-10T04:19:41;3.70;99.90
36132;DHT22;22185;48.738;9.324;2023-04-10T04:21:43;3.70;99.90
36132;DHT22;22185;48.738;9.324;2023-04-10T04:23:44;3.60;99.90
36132;DHT22;22185;48.738;9.324;2023-04-10T04:25:46;3.60;99.90
36132;DHT22;22185;48.738;9.324;2023-04-10T04:27:48;3.60;99.90
36132;DHT22;22185;48.738;9.324;2023-04-10T04:29:49;3.50;99.90
36132;DHT22;22185;48.738;9.324;2023-04-10T04:31:51;3.50;99.90
36132;DHT22;22185;48.738;9.324;2023-04-10T04:33:53;3.50;99.90
36132;DHT22;22185;48.738;9.324;2023-04-10T04:35:55;3.60;99.90
36132;DHT22;22185;48.738;9.324;2023-04-10T04:37:57;3.60;99.90
36132;DHT22;22185;48.738;9.324;2023-04-10T04:40:00;3.70;99.90
36132;DHT22;22185;48.738;9.324;2023-04-10T04:42:01;3.60;99.90
36132;DHT22;22185;48.738;9.324;2023-04-10T04:44:03;3.60;99.90
36132;DHT22;22185;48.738;9.324;2023-04-10T04:46:05;3.60;99.90
36132;DHT22;22185;48.738;9.324;2023-04-10T04:48:07;3.70;99.90
36132;DHT22;22185;48.738;9.324;2023-04-10T04:50:08;3.60;99.90
36132;DHT22;22185;48.738;9.324;2023-04-10T04:52:10;3.50;99.90
36132;DHT22;22185;48.738;9.324;2023-04-10T04:54:12;3.60;99.90
36132;DHT22;22185;48.738;9.324;2023-04-10T04:56:13;3.60;99.90
36132;DHT22;22185;48.738;9.324;2023-04-10T04:58:15;3.60;99.90
36132;DHT22;22185;48.738;9.324;2023-04-10T05:00:17;3.50;99.90
36132;DHT22;22185;48.738;9.324;2023-04-10T05:02:18;3.40;99.90
36132;DHT22;22185;48.738;9.324;2023-04-10T05:04:23;3.40;99.90
36132;DHT22;22185;48.738;9.324;2023-04-10T05:06:25;3.40;99.90
36132;DHT22;22185;48.738;9.324;2023-04-10T05:08:27;3.50;99.90
36132;DHT22;22185;48.738;9.324;2023-04-10T05:10:28;3.50;99.90
36132;DHT22;22185;48.738;9.324;2023-04-10T05:12:30;3.50;99.90
36132;DHT22;22185;48.738;9.324;2023-04-10T05:14:32;3.60;99.90
36132;DHT22;22185;48.738;9.324;2023-04-10T05:16:33;3.70;99.90
36132;DHT22;22185;48.738;9.324;2023-04-10T05:18:35;3.80;99.90
36132;DHT22;22185;48.738;9.324;2023-04-10T05:20:37;3.70;99.90
36132;DHT22;22185;48.738;9.324;2023-04-10T05:22:39;3.60;99.90
36132;DHT22;22185;48.738;9.324;2023-04-10T05:24:40;3.60;99.90
36132;DHT22;22185;48.738;9.324;2023-04-10T05:26:42;3.50;99.90
36132;DHT22;22185;48.738;9.324;2023-04-10T05:28:44;3.60;99.90
36132;DHT22;22185;48.738;9.324;2023-04-10T05:30:45;3.70;99.90
36132;DHT22;22185;48.738;9.324;2023-04-10T05:32:47;3.80;99.90
36132;DHT22;22185;48.738;9.324;2023-04-10T05:34:49;3.80;99.90
36132;DHT22;22185;48.738;9.324;2023-04-10T05:36:51;3.80;99.90
36132;DHT22;22185;48.738;9.324;2023-04-10T05:38:52;4.00;99.90
36132;DHT22;22185;48.738;9.324;2023-04-10T05:40:54;4.00;99.90
36132;DHT22;22185;48.738;9.324;2023-04-10T05:42:56;4.10;99.90
36132;DHT22;22185;48.738;9.324;2023-04-10T05:44:58;4.10;99.90
36132;DHT22;22185;48.738;9.324;2023-04-10T05:46:59;4.20;99.90
36132;DHT22;22185;48.738;9.324;2023-04-10T05:49:01;4.20;99.90
36132;DHT22;22185;48.738;9.324;2023-04-10T05:51:02;4.20;99.90
36132;DHT22;22185;48.738;9.324;2023-04-10T05:53:04;4.30;99.90
36132;DHT22;22185;48.738;9.324;2023-04-10T05:55:06;4.50;99.90
36132;DHT22;22185;48.738;9.324;2023-04-10T05:57:08;4.50;99.90
36132;DHT22;22185;48.738;9.324;2023-04-10T05:59:10;4.60;99.90
36132;DHT22;22185;48.738;9.324;2023-04-10T06:01:12;4.80;99.90
36132;DHT22;22185;48.738;9.324;2023-04-10T06:03:15;4.80;99.90
36132;DHT22;22185;48.738;9.324;2023-04-10T06:05:16;4.70;99.90
36132;DHT22;22185;48.738;9.324;2023-04-10T06:07:18;4.80;99.90
36132;DHT22;22185;48.738;9.324;2023-04-10T06:09:20;4.90;99.90
36132;DHT22;22185;48.738;9.324;2023-04-10T06:11:21;5.00;99.90
36132;DHT22;22185;48.738;9.324;2023-04-10T06:13:23;5.10;99.90
36132;DHT22;22185;48.738;9.324;2023-04-10T06:15:25;5.20;99.90
36132;DHT22;22185;48.738;9.324;2023-04-10T06:17:27;5.20;99.90
36132;DHT22;22185;48.738;9.324;2023-04-10T06:19:28;5.30;99.90
36132;DHT22;22185;48.738;9.324;2023-04-10T06:21:30;5.30;99.90
36132;DHT22;22185;48.738;9.324;2023-04-10T06:23:32;5.40;99.90
36132;DHT22;22185;48.738;9.324;2023-04-10T06:25:34;5.40;99.90
36132;DHT22;22185;48.738;9.324;2023-04-10T06:27:35;5.50;99.90
36132;DHT22;22185;48.738;9.324;2023-04-10T06:29:37;5.50;99.90
36132;DHT22;22185;48.738;9.324;2023-04-10T06:31:39;5.60;99.90
36132;DHT22;22185;48.738;9.324;2023-04-10T06:33:40;5.60;99.90
36132;DHT22;22185;48.738;9.324;2023-04-10T06:35:42;5.70;99.90
36132;DHT22;22185;48.738;9.324;2023-04-10T06:37:44;5.70;99.90
36132;DHT22;22185;48.738;9.324;2023-04-10T06:39:45;5.70;99.90
36132;DHT22;22185;48.738;9.324;2023-04-10T06:41:47;5.70;99.90
36132;DHT22;22185;48.738;9.324;2023-04-10T06:43:49;5.70;99.90
36132;DHT22;22185;48.738;9.324;2023-04-10T06:45:50;5.70;99.90
36132;DHT22;22185;48.738;9.324;2023-04-10T06:47:52;5.80;99.90
36132;DHT22;22185;48.738;9.324;2023-04-10T06:49:54;5.80;99.90
36132;DHT22;22185;48.738;9.324;2023-04-10T06:51:55;5.80;99.90
36132;DHT22;22185;48.738;9.324;2023-04-10T06:53:57;5.90;99.90
36132;DHT22;22185;48.738;9.324;2023-04-10T06:55:59;5.90;99.90
36132;DHT22;22185;48.738;9.324;2023-04-10T06:58:04;6.00;99.90
36132;DHT22;22185;48.738;9.324;2023-04-10T07:00:06;6.00;99.90
36132;DHT22;22185;48.738;9.324;2023-04-10T07:02:07;6.00;99.90
36132;DHT22;22185;48.738;9.324;2023-04-10T07:04:09;6.10;99.90
36132;DHT22;22185;48.738;9.324;2023-04-10T07:06:11;6.10;99.90
36132;DHT22;22185;48.738;9.324;2023-04-10T07:08:14;6.20;99.90
36132;DHT22;22185;48.738;9.324;2023-04-10T07:10:16;6.30;99.90
36132;DHT22;22185;48.738;9.324;2023-04-10T07:12:17;6.30;99.90
36132;DHT22;22185;48.738;9.324;2023-04-10T07:14:19;6.30;99.90
36132;DHT22;22185;48.738;9.324;2023-04-10T07:16:21;6.40;99.90
36132;DHT22;22185;48.738;9.324;2023-04-10T07:18:22;6.50;99.90
36132;DHT22;22185;48.738;9.324;2023-04-10T07:20:24;6.70;99.90
36132;DHT22;22185;48.738;9.324;2023-04-10T07:22:26;6.90;99.90
36132;DHT22;22185;48.738;9.324;2023-04-10T07:24:28;7.00;99.90
36132;DHT22;22185;48.738;9.324;2023-04-10T07:26:31;7.20;99.90
36132;DHT22;22185;48.738;9.324;2023-04-10T07:28:32;7.30;99.90
36132;DHT22;22185;48.738;9.324;2023-04-10T07:30:34;7.40;99.90
36132;DHT22;22185;48.738;9.324;2023-04-10T07:32:36;7.50;99.90
36132;DHT22;22185;48.738;9.324;2023-04-10T07:34:40;7.60;99.90
36132;DHT22;22185;48.738;9.324;2023-04-10T07:36:42;7.80;99.90
36132;DHT22;22185;48.738;9.324;2023-04-10T07:38:46;7.90;99.90
36132;DHT22;22185;48.738;9.324;2023-04-10T07:40:48;8.10;99.90
36132;DHT22;22185;48.738;9.324;2023-04-10T07:42:49;8.20;99.90
36132;DHT22;22185;48.738;9.324;2023-04-10T07:44:54;8.40;99.90
36132;DHT22;22185;48.738;9.324;2023-04-10T07:46:55;8.50;99.90
36132;DHT22;22185;48.738;9.324;2023-04-10T07:48:57;8.60;99.90
36132;DHT22;22185;48.738;9.324;2023-04-10T07:50:59;8.90;99.90
36132;DHT22;22185;48.738;9.324;2023-04-10T07:53:01;9.20;99.90
36132;DHT22;22185;48.738;9.324;2023-04-10T07:55:04;9.50;99.90
36132;DHT22;22185;48.738;9.324;2023-04-10T07:57:05;9.70;99.90
36132;DHT22;22185;48.738;9.324;2023-04-10T07:59:07;9.70;99.90
36132;DHT22;22185;48.738;9.324;2023-04-10T08:01:09;9.80;99.90
36132;DHT22;22185;48.738;9.324;2023-04-10T08:03:11;9.90;99.90
36132;DHT22;22185;48.738;9.324;2023-04-10T08:05:14;10.10;99.90
36132;DHT22;22185;48.738;9.324;2023-04-10T08:07:17;10.10;99.90
36132;DHT22;22185;48.738;9.324;2023-04-10T08:09:19;10.30;99.90
36132;DHT22;22185;48.738;9.324;2023-04-10T08:11:27;10.40;99.90
36132;DHT22;22185;48.738;9.324;2023-04-10T08:13:29;10.50;99.90
36132;DHT22;22185;48.738;9.324;2023-04-10T08:15:31;10.60;99.90
36132;DHT22;22185;48.738;9.324;2023-04-10T08:17:33;10.80;99.90
36132;DHT22;22185;48.738;9.324;2023-04-10T08:19:34;10.80;99.90
36132;DHT22;22185;48.738;9.324;2023-04-10T08:21:36;10.80;99.90
36132;DHT22;22185;48.738;9.324;2023-04-10T08:23:38;11.00;99.90
36132;DHT22;22185;48.738;9.324;2023-04-10T08:25:40;11.10;99.90
36132;DHT22;22185;48.738;9.324;2023-04-10T08:27:41;11.10;99.90
36132;DHT22;22185;48.738;9.324;2023-04-10T08:29:43;11.30;99.90
36132;DHT22;22185;48.738;9.324;2023-04-10T08:31:45;11.30;99.90
36132;DHT22;22185;48.738;9.324;2023-04-10T08:33:46;11.40;99.90
36132;DHT22;22185;48.738;9.324;2023-04-10T08:35:48;11.50;99.90
36132;DHT22;22185;48.738;9.324;2023-04-10T08:37:50;11.60;99.90
36132;DHT22;22185;48.738;9.324;2023-04-10T08:40:12;11.60;99.90
36132;DHT22;22185;48.738;9.324;2023-04-10T08:42:13;11.70;99.90
36132;DHT22;22185;48.738;9.324;2023-04-10T08:44:15;11.70;99.90
36132;DHT22;22185;48.738;9.324;2023-04-10T08:46:17;11.80;99.90
36132;DHT22;22185;48.738;9.324;2023-04-10T08:48:19;11.90;99.90
36132;DHT22;22185;48.738;9.324;2023-04-10T08:50:22;12.00;99.90
36132;DHT22;22185;48.738;9.324;2023-04-10T08:52:24;12.10;99.90
36132;DHT22;22185;48.738;9.324;2023-04-10T08:54:27;12.10;99.90
36132;DHT22;22185;48.738;9.324;2023-04-10T08:56:29;12.20;99.90
36132;DHT22;22185;48.738;9.324;2023-04-10T08:58:31;12.30;99.90
36132;DHT22;22185;48.738;9.324;2023-04-10T09:00:34;12.20;99.90
36132;DHT22;22185;48.738;9.324;2023-04-10T09:02:37;12.30;99.90
36132;DHT22;22185;48.738;9.324;2023-04-10T09:04:44;12.40;99.90
36132;DHT22;22185;48.738;9.324;2023-04-10T09:06:47;12.40;99.90
36132;DHT22;22185;48.738;9.324;2023-04-10T09:08:49;12.60;99.90
36132;DHT22;22185;48.738;9.324;2023-04-10T09:10:51;12.60;99.90
36132;DHT22;22185;48.738;9.324;2023-04-10T09:12:56;12.80;99.90
36132;DHT22;22185;48.738;9.324;2023-04-10T09:14:58;12.90;99.90
36132;DHT22;22185;48.738;9.324;2023-04-10T09:19:27;13.00;99.90
36132;DHT22;22185;48.738;9.324;2023-04-10T09:21:29;13.00;99.90
36132;DHT22;22185;48.738;9.324;2023-04-10T09:23:31;13.20;99.90
36132;DHT22;22185;48.738;9.324;2023-04-10T09:25:34;13.50;99.90
36132;DHT22;22185;48.738;9.324;2023-04-10T09:27:35;13.70;99.90
36132;DHT22;22185;48.738;9.324;2023-04-10T09:29:43;13.80;99.90
36132;DHT22;22185;48.738;9.324;2023-04-10T09:31:45;13.70;99.90
36132;DHT22;22185;48.738;9.324;2023-04-10T09:33:47;13.60;99.90
36132;DHT22;22185;48.738;9.324;2023-04-10T09:35:49;13.60;99.90
36132;DHT22;22185;48.738;9.324;2023-04-10T09:37:51;13.70;99.90
36132;DHT22;22185;48.738;9.324;2023-04-10T09:39:52;13.90;99.90
36132;DHT22;22185;48.738;9.324;2023-04-10T09:42:12;14.10;99.90
36132;DHT22;22185;48.738;9.324;2023-04-10T09:44:16;14.00;99.90
36132;DHT22;22185;48.738;9.324;2023-04-10T09:46:25;14.10;99.90
36132;DHT22;22185;48.738;9.324;2023-04-10T09:48:27;14.40;99.90
36132;DHT22;22185;48.738;9.324;2023-04-10T09:50:35;14.60;99.90
36132;DHT22;22185;48.738;9.324;2023-04-10T09:52:40;14.60;99.90
36132;DHT22;22185;48.738;9.324;2023-04-10T09:54:42;14.50;99.90
36132;DHT22;22185;48.738;9.324;2023-04-10T09:56:44;14.80;99.90
36132;DHT22;22185;48.738;9.324;2023-04-10T09:58:46;15.10;99.90
36132;DHT22;22185;48.738;9.324;2023-04-10T10:00:48;15.20;99.90
36132;DHT22;22185;48.738;9.324;2023-04-10T10:02:50;15.40;99.90
36132;DHT22;22185;48.738;9.324;2023-04-10T10:04:52;15.30;99.90
36132;DHT22;22185;48.738;9.324;2023-04-10T10:06:54;15.40;99.90
36132;DHT22;22185;48.738;9.324;2023-04-10T10:09:05;15.20;99.90
36132;DHT22;22185;48.738;9.324;2023-04-10T10:11:07;15.40;99.90
36132;DHT22;22185;48.738;9.324;2023-04-10T10:13:15;15.60;99.90
36132;DHT22;22185;48.738;9.324;2023-04-10T10:15:31;15.80;99.90
36132;DHT22;22185;48.738;9.324;2023-04-10T10:19:55;15.90;99.90
36132;DHT22;22185;48.738;9.324;2023-04-10T10:22:00;16.20;99.90
36132;DHT22;22185;48.738;9.324;2023-04-10T10:24:06;16.60;99.90
36132;DHT22;22185;48.738;9.324;2023-04-10T10:26:08;16.80;99.90
36132;DHT22;22185;48.738;9.324;2023-04-10T10:28:11;16.80;99.90
36132;DHT22;22185;48.738;9.324;2023-04-10T10:30:13;16.70;97.90
36132;DHT22;22185;48.738;9.324;2023-04-10T10:32:30;16.90;98.60
36132;DHT22;22185;48.738;9.324;2023-04-10T10:34:32;17.20;98.40
36132;DHT22;22185;48.738;9.324;2023-04-10T10:36:34;16.80;97.30
36132;DHT22;22185;48.738;9.324;2023-04-10T10:38:37;17.10;96.60
36132;DHT22;22185;48.738;9.324;2023-04-10T10:43:33;17.30;96.10
36132;DHT22;22185;48.738;9.324;2023-04-10T10:45:11;17.50;95.30
36132;DHT22;22185;48.738;9.324;2023-04-10T10:47:24;17.60;94.50
36132;DHT22;22185;48.738;9.324;2023-04-10T10:51:50;18.40;93.70
36132;DHT22;22185;48.738;9.324;2023-04-10T10:53:58;19.00;92.60
36132;DHT22;22185;48.738;9.324;2023-04-10T10:56:31;19.40;90.20
36132;DHT22;22185;48.738;9.324;2023-04-10T10:58:49;19.30;90.80
36132;DHT22;22185;48.738;9.324;2023-04-10T11:05:07;19.40;86.20
36132;DHT22;22185;48.738;9.324;2023-04-10T11:07:09;19.50;89.10
36132;DHT22;22185;48.738;9.324;2023-04-10T11:09:42;19.10;85.70
36132;DHT22;22185;48.738;9.324;2023-04-10T11:11:33;19.10;83.60
36132;DHT22;22185;48.738;9.324;2023-04-10T11:15:59;19.30;85.90
36132;DHT22;22185;48.738;9.324;2023-04-10T11:18:02;19.10;82.30
36132;DHT22;22185;48.738;9.324;2023-04-10T11:20:04;19.50;81.10
36132;DHT22;22185;48.738;9.324;2023-04-10T11:22:06;19.90;77.50
36132;DHT22;22185;48.738;9.324;2023-04-10T11:24:09;19.90;78.80
36132;DHT22;22185;48.738;9.324;2023-04-10T11:26:11;20.50;76.30
36132;DHT22;22185;48.738;9.324;2023-04-10T11:28:32;21.40;68.80
36132;DHT22;22185;48.738;9.324;2023-04-10T11:30:34;22.50;66.20
36132;DHT22;22185;48.738;9.324;2023-04-10T11:32:40;23.50;70.10
36132;DHT22;22185;48.738;9.324;2023-04-10T11:34:45;24.50;64.80
36132;DHT22;22185;48.738;9.324;2023-04-10T11:36:46;25.10;61.30
36132;DHT22;22185;48.738;9.324;2023-04-10T11:38:55;24.90;57.40
36132;DHT22;22185;48.738;9.324;2023-04-10T11:40:58;24.90;53.00
36132;DHT22;22185;48.738;9.324;2023-04-10T11:43:14;23.70;53.00
36132;DHT22;22185;48.738;9.324;2023-04-10T11:45:23;25.10;53.10
36132;DHT22;22185;48.738;9.324;2023-04-10T11:47:25;25.60;49.30
36132;DHT22;22185;48.738;9.324;2023-04-10T11:49:29;25.90;50.00
36132;DHT22;22185;48.738;9.324;2023-04-10T11:51:31;25.90;51.70
36132;DHT22;22185;48.738;9.324;2023-04-10T11:53:33;25.90;46.10
36132;DHT22;22185;48.738;9.324;2023-04-10T11:55:38;26.70;45.00
36132;DHT22;22185;48.738;9.324;2023-04-10T11:57:40;26.50;46.60
36132;DHT22;22185;48.738;9.324;2023-04-10T11:59:47;25.80;47.30
36132;DHT22;22185;48.738;9.324;2023-04-10T12:01:50;26.00;46.60
36132;DHT22;22185;48.738;9.324;2023-04-10T12:03:54;26.40;46.90
36132;DHT22;22185;48.738;9.324;2023-04-10T12:05:56;26.30;43.60
36132;DHT22;22185;48.738;9.324;2023-04-10T12:07:58;26.60;44.20
36132;DHT22;22185;48.738;9.324;2023-04-10T12:10:00;27.10;45.60
36132;DHT22;22185;48.738;9.324;2023-04-10T12:12:03;27.60;45.00
36132;DHT22;22185;48.738;9.324;2023-04-10T12:14:05;27.50;43.00
36132;DHT22;22185;48.738;9.324;2023-04-10T12:16:07;28.00;43.80
36132;DHT22;22185;48.738;9.324;2023-04-10T12:18:10;28.10;41.90
36132;DHT22;22185;48.738;9.324;2023-04-10T12:20:13;27.70;43.30
36132;DHT22;22185;48.738;9.324;2023-04-10T12:22:15;27.70;45.70
36132;DHT22;22185;48.738;9.324;2023-04-10T12:24:39;28.30;41.80
36132;DHT22;22185;48.738;9.324;2023-04-10T12:26:46;27.60;41.80
36132;DHT22;22185;48.738;9.324;2023-04-10T12:28:54;26.30;46.70
36132;DHT22;22185;48.738;9.324;2023-04-10T12:30:58;26.30;40.50
36132;DHT22;22185;48.738;9.324;2023-04-10T12:32:59;27.20;42.40
36132;DHT22;22185;48.738;9.324;2023-04-10T12:35:06;28.10;44.10
36132;DHT22;22185;48.738;9.324;2023-04-10T12:37:08;27.80;40.90
36132;DHT22;22185;48.738;9.324;2023-04-10T12:39:22;27.70;41.80
36132;DHT22;22185;48.738;9.324;2023-04-10T12:41:28;27.80;46.30
36132;DHT22;22185;48.738;9.324;2023-04-10T12:43:31;27.50;44.20
36132;DHT22;22185;48.738;9.324;2023-04-10T12:45:40;27.10;44.10
36132;DHT22;22185;48.738;9.324;2023-04-10T12:47:47;27.60;43.30
36132;DHT22;22185;48.738;9.324;2023-04-10T12:50:02;26.90;41.40
36132;DHT22;22185;48.738;9.324;2023-04-10T12:52:05;26.80;48.00
36132;DHT22;22185;48.738;9.324;2023-04-10T12:54:06;27.20;47.20
36132;DHT22;22185;48.738;9.324;2023-04-10T12:56:08;27.30;43.60
36132;DHT22;22185;48.738;9.324;2023-04-10T12:58:16;27.20;46.50
36132;DHT22;22185;48.738;9.324;2023-04-10T13:00:19;27.20;45.10
36132;DHT22;22185;48.738;9.324;2023-04-10T13:02:21;26.90;45.90
36132;DHT22;22185;48.738;9.324;2023-04-10T13:04:25;26.00;44.70
36132;DHT22;22185;48.738;9.324;2023-04-10T13:06:27;25.40;45.90
36132;DHT22;22185;48.738;9.324;2023-04-10T13:08:29;24.10;47.60
36132;DHT22;22185;48.738;9.324;2023-04-10T13:10:32;24.30;50.40
36132;DHT22;22185;48.738;9.324;2023-04-10T13:12:34;23.90;50.10
36132;DHT22;22185;48.738;9.324;2023-04-10T13:14:38;23.60;51.30
36132;DHT22;22185;48.738;9.324;2023-04-10T13:16:39;23.20;50.50
36132;DHT22;22185;48.738;9.324;2023-04-10T13:18:41;23.40;50.40
36132;DHT22;22185;48.738;9.324;2023-04-10T13:20:43;22.70;46.40
36132;DHT22;22185;48.738;9.324;2023-04-10T13:22:45;22.90;49.40
36132;DHT22;22185;48.738;9.324;2023-04-10T13:24:46;22.90;51.00
36132;DHT22;22185;48.738;9.324;2023-04-10T13:26:48;23.20;51.00
36132;DHT22;22185;48.738;9.324;2023-04-10T13:28:50;23.40;49.30
36132;DHT22;22185;48.738;9.324;2023-04-10T13:30:51;23.60;51.20